Ashley, Michigan
Current Conditions -  °F | °C
As of 7:13 PM on Thursday 27 Nov 2014 (Local Time) from KAMN Reporting Station
Scattered Clouds Scattered Clouds  
Wind Chill: 11°   Ceiling: Unl
Heat Index: 21°   Visibility: 10mi
Dew Point: 14°   Wind: 9mph
Humidity: 74%   Direction: 300°WNW
Pressure: 30.3"   Gusts: NA
Location:  43.19°N, 84.47°W
Report Text: KAMN 280013Z AUTO 30008KT 10SM SCT046 M06/M10 A3030 RMK AO2 T10601099
Loading
Personal Weather Stations






























Interactive Weather Map New forecast layout! Learn more

10-Day Weather Forecast

Advertisements
Track Severe Weather on mobile